createdAt,value
2022-08-01T00:00:18.435Z,22.50
2022-08-01T00:05:26.050Z,22.48
2022-08-01T00:10:30.938Z,22.50
2022-08-01T00:15:36.130Z,22.79
2022-08-01T00:20:43.626Z,22.79
2022-08-01T00:25:48.448Z,22.49
2022-08-01T00:30:53.479Z,22.10
2022-08-01T00:36:01.011Z,22.12
2022-08-01T00:41:06.028Z,22.16
2022-08-01T00:46:11.069Z,22.28
2022-08-01T00:51:18.986Z,22.24
2022-08-01T00:56:24.899Z,21.90
2022-08-01T01:01:39.502Z,21.78
2022-08-01T01:06:52.840Z,21.83
2022-08-01T01:12:12.036Z,21.53
2022-08-01T01:17:49.599Z,21.38
2022-08-01T01:23:01.609Z,21.31
2022-08-01T01:28:16.763Z,21.13
2022-08-01T01:33:29.556Z,21.40
2022-08-01T01:38:42.991Z,20.99
2022-08-01T01:43:50.597Z,21.10
2022-08-01T01:48:59.744Z,21.09
2022-08-01T01:54:06.201Z,20.94
2022-08-01T01:59:11.129Z,20.77
2022-08-01T02:04:20.197Z,20.91
2022-08-01T02:09:27.155Z,20.74
2022-08-01T02:14:33.268Z,20.77
2022-08-01T02:19:41.484Z,20.66
2022-08-01T02:24:50.907Z,20.66
2022-08-01T02:30:01.111Z,20.75
2022-08-01T02:35:11.835Z,20.58
2022-08-01T02:40:18.336Z,20.65
2022-08-01T02:45:26.580Z,20.86
2022-08-01T02:50:37.963Z,20.81
2022-08-01T02:55:46.093Z,20.77
2022-08-01T03:00:51.157Z,21.10
2022-08-01T03:06:02.032Z,20.97
2022-08-01T03:11:09.403Z,21.03
2022-08-01T03:16:16.711Z,21.05
2022-08-01T03:21:27.086Z,21.17
2022-08-01T03:26:34.882Z,21.28
2022-08-01T03:31:43.823Z,21.20
2022-08-01T03:36:57.032Z,21.30
2022-08-01T03:42:19.833Z,21.34
2022-08-01T03:47:29.102Z,21.41
2022-08-01T03:52:38.793Z,21.37
2022-08-01T03:57:44.154Z,21.29
2022-08-01T04:02:51.131Z,21.12
2022-08-01T04:08:00.708Z,21.27
2022-08-01T04:13:05.582Z,21.37
2022-08-01T04:18:11.065Z,21.40
2022-08-01T04:23:20.211Z,21.41
2022-08-01T04:28:27.262Z,21.64
2022-08-01T04:33:37.759Z,21.23
2022-08-01T04:38:50.150Z,21.34
2022-08-01T04:43:56.783Z,21.39
2022-08-01T04:49:04.966Z,21.51
2022-08-01T04:54:12.591Z,21.24
2022-08-01T04:59:29.790Z,21.29
2022-08-01T05:04:35.164Z,21.35
2022-08-01T05:09:47.029Z,21.06
2022-08-01T05:14:52.080Z,21.02
2022-08-01T05:19:57.177Z,21.13
2022-08-01T05:25:06.013Z,23.17
2022-08-01T05:30:12.971Z,21.39
2022-08-01T05:35:17.892Z,21.24
2022-08-01T05:40:25.850Z,21.41
2022-08-01T05:45:31.100Z,21.43
2022-08-01T05:50:37.131Z,22.11
2022-08-01T05:55:44.555Z,21.66
2022-08-01T06:00:50.141Z,22.04
2022-08-01T06:05:55.402Z,22.87
2022-08-01T06:11:03.233Z,22.06
2022-08-01T06:16:09.095Z,21.55
2022-08-01T06:21:16.564Z,21.57
2022-08-01T06:26:24.295Z,21.80
2022-08-01T06:31:33.425Z,21.48
2022-08-01T06:36:38.597Z,21.52
2022-08-01T06:41:47.517Z,21.75
2022-08-01T06:46:53.112Z,21.40
2022-08-01T06:51:59.331Z,21.48
2022-08-01T06:57:08.793Z,21.10
2022-08-01T07:02:13.721Z,20.62
2022-08-01T07:07:21.377Z,20.60
2022-08-01T07:12:29.154Z,20.69
2022-08-01T07:17:34.035Z,20.71
2022-08-01T07:22:39.254Z,20.55
2022-08-01T07:27:47.436Z,20.70
2022-08-01T07:32:52.410Z,21.08
2022-08-01T07:37:59.177Z,21.23
2022-08-01T07:43:06.922Z,21.53
2022-08-01T07:48:12.003Z,21.09
2022-08-01T07:53:16.880Z,21.34
2022-08-01T07:58:24.486Z,21.71
2022-08-01T08:03:30.359Z,21.88
2022-08-01T08:08:35.752Z,21.39
2022-08-01T08:13:43.587Z,21.94
2022-08-01T08:18:48.557Z,22.84
2022-08-01T08:24:05.877Z,22.75
2022-08-01T08:29:13.583Z,22.78
2022-08-01T08:34:18.869Z,22.44
2022-08-01T08:39:23.825Z,22.71
2022-08-01T08:44:31.814Z,23.17
2022-08-01T08:49:36.947Z,22.78
2022-08-01T08:54:44.804Z,22.55
2022-08-01T08:59:58.143Z,22.34
2022-08-01T09:05:03.384Z,22.56
2022-08-01T09:10:10.396Z,22.46
2022-08-01T09:15:18.547Z,23.78
2022-08-01T09:20:27.663Z,23.99
2022-08-01T09:25:59.397Z,23.41
2022-08-01T09:31:13.703Z,23.12
2022-08-01T09:36:21.288Z,23.12
2022-08-01T09:41:37.454Z,23.62
2022-08-01T09:46:57.535Z,24.91
2022-08-01T09:52:13.292Z,24.37
2022-08-01T09:57:21.193Z,23.79
2022-08-01T10:02:37.720Z,24.03
2022-08-01T10:08:00.767Z,24.37
2022-08-01T10:13:06.293Z,24.40
2022-08-01T10:18:26.220Z,25.44
2022-08-01T10:23:39.853Z,24.84
2022-08-01T10:28:48.989Z,24.54
2022-08-01T10:33:57.258Z,24.98
2022-08-01T10:39:03.065Z,25.37
2022-08-01T10:44:10.900Z,25.69
2022-08-01T10:49:23.597Z,25.14
2022-08-01T10:54:32.045Z,25.36
2022-08-01T10:59:50.734Z,25.60
2022-08-01T11:05:14.813Z,25.69
2022-08-01T11:10:28.407Z,26.16
2022-08-01T11:15:33.514Z,25.28
2022-08-01T11:20:42.055Z,24.94
2022-08-01T11:26:17.573Z,25.87
2022-08-01T11:31:31.138Z,25.64
2022-08-01T11:37:01.685Z,25.66
2022-08-01T11:42:23.682Z,25.52
2022-08-01T11:47:58.688Z,25.05
2022-08-01T11:53:08.520Z,25.60
2022-08-01T11:58:22.217Z,26.63
2022-08-01T12:03:36.588Z,26.18
2022-08-01T12:08:44.287Z,25.75
2022-08-01T12:13:50.608Z,26.22
2022-08-01T12:18:55.588Z,25.54
2022-08-01T12:24:07.676Z,26.16
2022-08-01T12:29:12.878Z,27.22
2022-08-01T12:34:29.768Z,26.99
2022-08-01T12:39:40.320Z,25.95
2022-08-01T12:50:18.112Z,26.59
2022-08-01T12:55:33.992Z,26.17
2022-08-01T13:00:41.532Z,26.61
2022-08-01T13:05:49.520Z,26.42
2022-08-01T13:11:06.386Z,26.12
2022-08-01T13:16:15.617Z,26.83
2022-08-01T13:21:54.214Z,27.46
2022-08-01T13:27:07.370Z,27.53
2022-08-01T13:32:27.970Z,27.71
2022-08-01T13:37:39.049Z,27.30
2022-08-01T13:42:49.776Z,26.65
2022-08-01T13:48:03.578Z,27.39
2022-08-01T13:53:18.694Z,27.23
2022-08-01T13:58:29.488Z,26.57
2022-08-01T14:03:34.767Z,27.01
2022-08-01T14:08:39.791Z,27.32
2022-08-01T14:13:53.759Z,27.90
2022-08-01T14:19:04.047Z,27.86
2022-08-01T14:24:11.013Z,27.01
2022-08-01T14:30:04.362Z,26.72
2022-08-01T14:34:56.336Z,27.41
2022-08-01T14:40:05.397Z,26.60
2022-08-01T14:45:16.670Z,27.25
2022-08-01T14:50:21.752Z,26.49
2022-08-01T14:55:29.167Z,26.68
2022-08-01T15:00:38.444Z,26.63
2022-08-01T15:05:43.814Z,27.08
2022-08-01T15:10:48.810Z,27.44
2022-08-01T15:15:59.853Z,27.37
2022-08-01T15:21:05.261Z,27.24
2022-08-01T15:26:14.768Z,27.39
2022-08-01T15:31:22.405Z,26.30
2022-08-01T15:36:27.583Z,26.36
2022-08-01T15:41:35.593Z,26.99
2022-08-01T15:46:43.153Z,26.48
2022-08-01T15:51:48.224Z,26.56
2022-08-01T15:56:57.544Z,26.61
2022-08-01T16:02:05.674Z,26.41
2022-08-01T16:07:11.235Z,26.03
2022-08-01T16:12:16.564Z,26.56
2022-08-01T16:17:24.165Z,26.23
2022-08-01T16:22:29.504Z,26.39
2022-08-01T16:27:38.695Z,26.24
2022-08-01T16:32:53.068Z,26.33
2022-08-01T16:38:10.720Z,25.82
2022-08-01T16:43:16.102Z,26.13
2022-08-01T16:48:27.640Z,26.24
2022-08-01T16:53:32.648Z,25.66
2022-08-01T16:58:37.648Z,25.77
2022-08-01T17:03:52.554Z,25.82
2022-08-01T17:08:58.890Z,25.99
2022-08-01T17:14:03.775Z,25.70
2022-08-01T17:19:11.408Z,25.65
2022-08-01T17:24:16.909Z,25.49
2022-08-01T17:29:21.817Z,25.73
2022-08-01T17:34:29.543Z,25.56
2022-08-01T17:39:39.284Z,25.50
2022-08-01T17:44:48.959Z,25.41
2022-08-01T17:49:57.107Z,25.41
2022-08-01T17:55:02.459Z,25.52
2022-08-01T18:00:08.835Z,25.27
2022-08-01T18:05:16.866Z,25.11
2022-08-01T18:10:22.385Z,24.97
2022-08-01T18:15:29.233Z,24.75
2022-08-01T18:20:42.846Z,24.65
2022-08-01T18:25:48.359Z,24.74
2022-08-01T18:30:53.323Z,24.72
2022-08-01T18:36:03.821Z,24.63
2022-08-01T18:41:10.540Z,24.48
2022-08-01T18:46:15.474Z,24.37
2022-08-01T18:51:24.797Z,24.44
2022-08-01T18:56:29.733Z,24.36
2022-08-01T19:01:34.821Z,24.27
2022-08-01T19:06:43.268Z,23.84
2022-08-01T19:11:52.591Z,23.96
2022-08-01T19:16:57.568Z,23.94
2022-08-01T19:22:05.328Z,23.72
2022-08-01T19:27:14.320Z,23.45
2022-08-01T19:32:26.537Z,23.37
2022-08-01T19:37:47.306Z,23.29
2022-08-01T19:42:52.713Z,23.29
2022-08-01T19:47:58.301Z,23.11
2022-08-01T19:53:06.933Z,22.85
2022-08-01T19:58:28.794Z,22.76
2022-08-01T20:03:39.131Z,22.54
2022-08-01T20:08:47.104Z,22.11
2022-08-01T20:13:53.841Z,21.90
2022-08-01T20:18:59.147Z,21.83
2022-08-01T20:24:11.835Z,21.73
2022-08-01T20:29:17.708Z,21.86
2022-08-01T20:34:25.956Z,21.90
2022-08-01T20:39:36.373Z,21.76
2022-08-01T20:44:46.571Z,21.51
2022-08-01T20:49:53.972Z,21.38
2022-08-01T20:55:01.429Z,21.14
2022-08-01T21:00:08.777Z,21.16
2022-08-01T21:05:14.947Z,20.97
2022-08-01T21:10:26.351Z,21.36
2022-08-01T21:15:35.034Z,21.15
2022-08-01T21:20:45.627Z,20.58
2022-08-01T21:25:55.259Z,20.68
2022-08-01T21:31:01.618Z,20.45
2022-08-01T21:36:07.787Z,20.52
2022-08-01T21:41:16.681Z,20.34
2022-08-01T21:46:25.568Z,20.26
2022-08-01T21:51:40.562Z,20.25
2022-08-01T21:56:55.742Z,19.94
2022-08-01T22:02:05.618Z,19.98
2022-08-01T22:07:12.600Z,20.01
2022-08-01T22:12:21.615Z,19.98
2022-08-01T22:17:27.408Z,19.96
2022-08-01T22:22:51.473Z,20.03
2022-08-01T22:28:08.096Z,19.94
2022-08-01T22:33:15.974Z,20.07
2022-08-01T22:38:23.273Z,20.22
2022-08-01T22:43:40.849Z,20.15
2022-08-01T22:48:48.975Z,19.86
2022-08-01T22:53:59.252Z,19.88
2022-08-01T22:59:12.088Z,19.68
2022-08-01T23:04:30.768Z,19.78
2022-08-01T23:09:54.278Z,19.94
2022-08-01T23:15:04.074Z,19.64
2022-08-01T23:20:10.337Z,19.58
2022-08-01T23:25:18.503Z,19.36
2022-08-01T23:30:27.940Z,19.22
2022-08-01T23:35:36.914Z,19.12
2022-08-01T23:40:47.119Z,19.05
2022-08-01T23:46:04.191Z,18.77
2022-08-01T23:51:17.277Z,18.71
2022-08-01T23:56:29.109Z,18.54
